createdAt,value
2022-09-11T00:01:44.369Z,99305.00
2022-09-11T00:04:12.354Z,99295.00
2022-09-11T00:06:40.931Z,99308.00
2022-09-11T00:09:09.324Z,99292.00
2022-09-11T00:11:42.066Z,99300.00
2022-09-11T00:14:14.627Z,99309.00
2022-09-11T00:16:45.042Z,99310.00
2022-09-11T00:19:19.637Z,99299.00
2022-09-11T00:21:49.279Z,99308.00
2022-09-11T00:24:17.728Z,99294.00
2022-09-11T00:26:47.783Z,99298.00
2022-09-11T00:29:17.107Z,99294.00
2022-09-11T00:31:45.334Z,99295.00
2022-09-11T00:34:13.339Z,99298.00
2022-09-11T00:36:43.145Z,99298.00
2022-09-11T00:39:12.952Z,99289.00
2022-09-11T00:41:44.875Z,99292.00
2022-09-11T00:45:01.884Z,99290.00
2022-09-11T00:47:32.162Z,99283.00
2022-09-11T00:50:12.193Z,99286.00
2022-09-11T00:52:53.117Z,99289.00
2022-09-11T00:55:27.244Z,99286.00
2022-09-11T00:58:00.897Z,99297.00
2022-09-11T01:00:30.873Z,99296.00
2022-09-11T01:03:00.044Z,99293.00
2022-09-11T01:05:33.115Z,99297.00
2022-09-11T01:08:03.805Z,99298.00
2022-09-11T01:10:47.511Z,99300.00
2022-09-11T01:13:28.864Z,99298.00
2022-09-11T01:16:09.683Z,99300.00
2022-09-11T01:18:49.128Z,99295.00
2022-09-11T01:21:53.341Z,99304.00
2022-09-11T01:24:45.020Z,99294.00
2022-09-11T01:27:43.061Z,99299.00
2022-09-11T01:30:15.717Z,99296.00
2022-09-11T01:33:17.269Z,99299.00
2022-09-11T01:36:00.590Z,99295.00
2022-09-11T01:38:37.709Z,99297.00
2022-09-11T01:41:14.356Z,99305.00
2022-09-11T01:43:51.376Z,99308.00
2022-09-11T01:46:24.337Z,99299.00
2022-09-11T01:49:06.672Z,99306.00
2022-09-11T01:51:39.127Z,99305.00
2022-09-11T01:54:15.616Z,99307.00
2022-09-11T01:56:52.924Z,99312.00
2022-09-11T01:59:32.609Z,99308.00
2022-09-11T02:02:06.911Z,99311.00
2022-09-11T02:04:41.242Z,99305.00
2022-09-11T02:07:16.759Z,99305.00
2022-09-11T02:09:54.037Z,99299.00
2022-09-11T02:12:30.078Z,99304.00
2022-09-11T02:15:03.005Z,99306.00
2022-09-11T02:17:43.684Z,99294.00
2022-09-11T02:20:12.371Z,99297.00
2022-09-11T02:22:40.535Z,99288.00
2022-09-11T02:25:09.687Z,99284.00
2022-09-11T02:27:37.657Z,99281.00
2022-09-11T02:30:09.539Z,99298.00
2022-09-11T02:32:40.702Z,99293.00
2022-09-11T02:35:10.993Z,99296.00
2022-09-11T02:37:59.210Z,99310.00
2022-09-11T02:40:55.295Z,99300.00
2022-09-11T02:43:44.929Z,99296.00
2022-09-11T02:46:38.926Z,99306.00
2022-09-11T02:49:20.113Z,99309.00
2022-09-11T02:52:00.124Z,99310.00
2022-09-11T02:54:41.737Z,99314.00
2022-09-11T02:57:19.172Z,99317.00
2022-09-11T02:59:54.554Z,99319.00
2022-09-11T03:02:25.577Z,99311.00
2022-09-11T03:04:53.986Z,99311.00
2022-09-11T03:07:22.010Z,99317.00
2022-09-11T03:09:50.004Z,99315.00
2022-09-11T03:12:21.904Z,99314.00
2022-09-11T03:14:51.747Z,99316.00
2022-09-11T03:17:20.797Z,99309.00
2022-09-11T03:19:50.570Z,99311.00
2022-09-11T03:22:19.598Z,99313.00
2022-09-11T03:24:48.069Z,99311.00
2022-09-11T03:27:17.163Z,99313.00
2022-09-11T03:29:46.537Z,99307.00
2022-09-11T03:32:16.119Z,99314.00
2022-09-11T03:34:44.115Z,99313.00
2022-09-11T03:37:13.352Z,99316.00
2022-09-11T03:39:41.810Z,99318.00
2022-09-11T03:42:12.217Z,99319.00
2022-09-11T03:44:41.042Z,99326.00
2022-09-11T03:47:13.352Z,99332.00
2022-09-11T03:49:41.441Z,99321.00
2022-09-11T03:52:09.416Z,99328.00
2022-09-11T03:54:39.766Z,99326.00
2022-09-11T03:57:09.698Z,99323.00
2022-09-11T03:59:39.328Z,99328.00
2022-09-11T04:02:07.429Z,99331.00
2022-09-11T04:04:36.976Z,99328.00
2022-09-11T04:07:05.699Z,99331.00
2022-09-11T04:09:34.513Z,99337.00
2022-09-11T04:12:04.225Z,99343.00
2022-09-11T04:14:32.802Z,99342.00
2022-09-11T04:17:00.862Z,99344.00
2022-09-11T04:19:30.437Z,99348.00
2022-09-11T04:21:58.442Z,99354.00
2022-09-11T04:24:26.609Z,99351.00
2022-09-11T04:26:59.988Z,99357.00
2022-09-11T04:29:32.521Z,99351.00
2022-09-11T04:32:00.675Z,99357.00
2022-09-11T04:34:31.975Z,99362.00
2022-09-11T04:37:00.535Z,99371.00
2022-09-11T04:39:30.862Z,99371.00
2022-09-11T04:41:59.434Z,99370.00
2022-09-11T04:44:32.462Z,99365.00
2022-09-11T04:47:01.275Z,99366.00
2022-09-11T04:49:29.721Z,99367.00
2022-09-11T04:52:02.793Z,99366.00
2022-09-11T04:54:31.321Z,99368.00
2022-09-11T04:56:59.254Z,99367.00
2022-09-11T04:59:28.648Z,99368.00
2022-09-11T05:02:08.501Z,99377.00
2022-09-11T05:04:41.672Z,99382.00
2022-09-11T05:07:13.354Z,99379.00
2022-09-11T05:09:43.469Z,99364.00
2022-09-11T05:12:12.115Z,99381.00
2022-09-11T05:14:40.218Z,99380.00
2022-09-11T05:17:09.521Z,99383.00
2022-09-11T05:19:41.898Z,99383.00
2022-09-11T05:22:10.040Z,99387.00
2022-09-11T05:24:41.878Z,99394.00
2022-09-11T05:27:10.069Z,99400.00
2022-09-11T05:29:39.173Z,99396.00
2022-09-11T05:32:13.687Z,99401.00
2022-09-11T05:34:42.798Z,99398.00
2022-09-11T05:37:14.300Z,99403.00
2022-09-11T05:39:45.919Z,99403.00
2022-09-11T05:42:16.199Z,99415.00
2022-09-11T05:44:48.959Z,99419.00
2022-09-11T05:47:18.809Z,99422.00
2022-09-11T05:49:50.587Z,99432.00
2022-09-11T05:52:18.708Z,99435.00
2022-09-11T05:54:47.037Z,99435.00
2022-09-11T05:57:16.093Z,99442.00
2022-09-11T05:59:44.572Z,99445.00
2022-09-11T06:02:14.305Z,99440.00
2022-09-11T06:04:52.034Z,99443.00
2022-09-11T06:07:21.579Z,99450.00
2022-09-11T06:09:51.344Z,99454.00
2022-09-11T06:12:19.420Z,99450.00
2022-09-11T06:14:49.135Z,99450.00
2022-09-11T06:17:17.221Z,99454.00
2022-09-11T06:19:45.920Z,99457.00
2022-09-11T06:22:15.274Z,99465.00
2022-09-11T06:24:45.453Z,99463.00
2022-09-11T06:27:13.375Z,99465.00
2022-09-11T06:29:45.241Z,99468.00
2022-09-11T06:32:13.839Z,99468.00
2022-09-11T06:34:42.348Z,99468.00
2022-09-11T06:37:15.057Z,99474.00
2022-09-11T06:39:43.082Z,99487.00
2022-09-11T06:42:18.968Z,99479.00
2022-09-11T06:44:50.759Z,99483.00
2022-09-11T06:47:19.357Z,99477.00
2022-09-11T06:49:47.644Z,99483.00
2022-09-11T06:52:28.899Z,99488.00
2022-09-11T06:55:13.321Z,99483.00
2022-09-11T06:57:42.402Z,99491.00
2022-09-11T07:00:15.774Z,99490.00
2022-09-11T07:02:45.195Z,99490.00
2022-09-11T07:05:14.594Z,99494.00
2022-09-11T07:07:46.324Z,99495.00
2022-09-11T07:10:14.776Z,99493.00
2022-09-11T07:12:43.589Z,99498.00
2022-09-11T07:15:12.775Z,99491.00
2022-09-11T07:17:41.314Z,99502.00
2022-09-11T07:20:11.902Z,99500.00
2022-09-11T07:22:40.608Z,99498.00
2022-09-11T07:25:10.601Z,99487.00
2022-09-11T07:27:42.149Z,99493.00
2022-09-11T07:30:13.669Z,99498.00
2022-09-11T07:32:44.038Z,99497.00
2022-09-11T07:35:12.951Z,99503.00
2022-09-11T07:37:40.860Z,99502.00
2022-09-11T07:40:12.156Z,99507.00
2022-09-11T07:42:41.150Z,99502.00
2022-09-11T07:45:10.120Z,99504.00
2022-09-11T07:47:38.539Z,99505.00
2022-09-11T07:50:08.013Z,99510.00
2022-09-11T07:52:37.637Z,99508.00
2022-09-11T07:55:08.215Z,99510.00
2022-09-11T07:57:38.383Z,99516.00
2022-09-11T08:00:12.209Z,99525.00
2022-09-11T08:02:49.469Z,99515.00
2022-09-11T08:05:26.661Z,99527.00
2022-09-11T08:07:55.134Z,99528.00
2022-09-11T08:10:27.664Z,99525.00
2022-09-11T08:12:59.809Z,99526.00
2022-09-11T08:15:31.249Z,99532.00
2022-09-11T08:17:59.208Z,99531.00
2022-09-11T08:20:27.403Z,99535.00
2022-09-11T08:22:55.417Z,99548.00
2022-09-11T08:25:23.912Z,99540.00
2022-09-11T08:27:53.116Z,99547.00
2022-09-11T08:30:25.211Z,99549.00
2022-09-11T08:32:53.287Z,99549.00
2022-09-11T08:35:22.284Z,99557.00
2022-09-11T08:37:54.716Z,99557.00
2022-09-11T08:40:23.663Z,99566.00
2022-09-11T08:42:53.075Z,99568.00
2022-09-11T08:45:29.525Z,99576.00
2022-09-11T08:48:01.223Z,99576.00
2022-09-11T08:50:39.984Z,99583.00
2022-09-11T08:53:16.323Z,99587.00
2022-09-11T08:55:50.546Z,99583.00
2022-09-11T08:58:33.620Z,99585.00
2022-09-11T09:01:15.643Z,99588.00
2022-09-11T09:04:06.798Z,99585.00
2022-09-11T09:06:54.323Z,99581.00
2022-09-11T09:09:37.159Z,99592.00
2022-09-11T09:12:16.039Z,99586.00
2022-09-11T09:15:08.792Z,99601.00
2022-09-11T09:17:43.365Z,99592.00
2022-09-11T09:20:21.097Z,99600.00
2022-09-11T09:22:57.303Z,99602.00
2022-09-11T09:25:28.965Z,99607.00
2022-09-11T09:28:07.633Z,99609.00
2022-09-11T09:30:45.815Z,99609.00
2022-09-11T09:33:30.769Z,99611.00
2022-09-11T09:36:13.772Z,99620.00
2022-09-11T09:38:41.746Z,99615.00
2022-09-11T09:41:49.798Z,99615.00
2022-09-11T09:44:38.249Z,99615.00
2022-09-11T09:47:12.598Z,99624.00
2022-09-11T09:49:44.068Z,99621.00
2022-09-11T09:52:19.185Z,99623.00
2022-09-11T09:54:56.796Z,99627.00
2022-09-11T09:57:30.156Z,99626.00
2022-09-11T10:00:06.459Z,99629.00
2022-09-11T10:02:43.283Z,99629.00
2022-09-11T10:05:25.905Z,99646.00
2022-09-11T10:07:57.725Z,99638.00
2022-09-11T10:10:30.024Z,99645.00
2022-09-11T10:13:18.592Z,99640.00
2022-09-11T10:15:50.513Z,99641.00
2022-09-11T10:18:43.875Z,99648.00
2022-09-11T10:21:29.481Z,99648.00
2022-09-11T10:23:59.891Z,99653.00
2022-09-11T10:26:34.685Z,99647.00
2022-09-11T10:29:10.210Z,99652.00
2022-09-11T10:31:42.512Z,99656.00
2022-09-11T10:34:21.162Z,99652.00
2022-09-11T10:37:01.990Z,99656.00
2022-09-11T10:39:33.223Z,99657.00
2022-09-11T10:42:16.533Z,99669.00
2022-09-11T10:44:47.433Z,99676.00
2022-09-11T10:47:19.358Z,99667.00
2022-09-11T10:49:47.803Z,99667.00
2022-09-11T10:52:22.238Z,99674.00
2022-09-11T10:55:04.605Z,99670.00
2022-09-11T10:57:43.839Z,99670.00
2022-09-11T11:00:20.107Z,99677.00
2022-09-11T11:02:53.280Z,99675.00
2022-09-11T11:05:27.948Z,99680.00
2022-09-11T11:08:33.180Z,99687.00
2022-09-11T11:11:25.606Z,99689.00
2022-09-11T11:14:13.198Z,99678.00
2022-09-11T11:16:57.604Z,99681.00
2022-09-11T11:19:56.271Z,99684.00
2022-09-11T11:22:49.407Z,99687.00
2022-09-11T11:25:28.945Z,99692.00
2022-09-11T11:28:22.373Z,99689.00
2022-09-11T11:31:01.953Z,99690.00
2022-09-11T11:34:03.570Z,99694.00
2022-09-11T11:36:40.542Z,99706.00
2022-09-11T11:39:23.420Z,99706.00
2022-09-11T11:42:08.487Z,99704.00
2022-09-11T11:44:46.607Z,99708.00
2022-09-11T11:47:17.548Z,99713.00
2022-09-11T11:49:59.782Z,99715.00
2022-09-11T11:52:41.635Z,99722.00
2022-09-11T11:55:20.715Z,99720.00
2022-09-11T11:58:01.947Z,99721.00
2022-09-11T12:00:34.312Z,99720.00
2022-09-11T12:03:12.080Z,99723.00
2022-09-11T12:05:40.418Z,99716.00
2022-09-11T12:08:14.375Z,99719.00
2022-09-11T12:10:56.583Z,99717.00
2022-09-11T12:13:32.614Z,99722.00
2022-09-11T12:16:13.248Z,99720.00
2022-09-11T12:18:43.568Z,99722.00
2022-09-11T12:21:42.508Z,99726.00
2022-09-11T12:24:20.937Z,99728.00
2022-09-11T12:27:28.710Z,99728.00
2022-09-11T12:30:08.809Z,99732.00
2022-09-11T12:32:45.933Z,99737.00
2022-09-11T12:35:21.099Z,99733.00
2022-09-11T12:37:58.225Z,99731.00
2022-09-11T12:40:43.721Z,99733.00
2022-09-11T12:43:31.542Z,99733.00
2022-09-11T12:46:02.113Z,99732.00
2022-09-11T12:48:42.673Z,99734.00
2022-09-11T12:51:22.661Z,99735.00
2022-09-11T12:53:55.408Z,99731.00
2022-09-11T12:56:26.491Z,99731.00
2022-09-11T12:58:59.193Z,99735.00
2022-09-11T13:01:33.063Z,99724.00
2022-09-11T13:04:15.909Z,99719.00
2022-09-11T13:06:48.465Z,99728.00
2022-09-11T13:09:23.942Z,99728.00
2022-09-11T13:11:55.080Z,99731.00
2022-09-11T13:14:56.666Z,99722.00
2022-09-11T13:17:30.242Z,99720.00
2022-09-11T13:20:20.561Z,99721.00
2022-09-11T13:22:49.005Z,99708.00
2022-09-11T13:25:20.274Z,99717.00
2022-09-11T13:27:51.691Z,99715.00
2022-09-11T13:30:23.203Z,99712.00
2022-09-11T13:33:06.368Z,99707.00
2022-09-11T13:35:35.700Z,99709.00
2022-09-11T13:38:10.026Z,99713.00
2022-09-11T13:40:47.229Z,99709.00
2022-09-11T13:43:20.720Z,99707.00
2022-09-11T13:45:48.890Z,99710.00
2022-09-11T13:48:24.357Z,99703.00
2022-09-11T13:50:53.832Z,99704.00
2022-09-11T13:53:23.700Z,99701.00
2022-09-11T13:55:51.709Z,99695.00
2022-09-11T13:58:25.045Z,99690.00
2022-09-11T14:00:55.442Z,99687.00
2022-09-11T14:03:30.394Z,99684.00
2022-09-11T14:06:00.958Z,99684.00
2022-09-11T14:08:34.311Z,99690.00
2022-09-11T14:11:11.157Z,99688.00
2022-09-11T14:13:47.155Z,99682.00
2022-09-11T14:16:27.206Z,99675.00
2022-09-11T14:19:01.505Z,99672.00
2022-09-11T14:21:36.109Z,99680.00
2022-09-11T14:24:25.015Z,99670.00
2022-09-11T14:26:53.651Z,99672.00
2022-09-11T14:29:28.107Z,99674.00
2022-09-11T14:32:31.568Z,99672.00
2022-09-11T14:35:01.957Z,99664.00
2022-09-11T14:37:34.633Z,99668.00
2022-09-11T14:40:07.726Z,99667.00
2022-09-11T14:42:37.947Z,99663.00
2022-09-11T14:45:09.929Z,99663.00
2022-09-11T14:47:38.082Z,99670.00
2022-09-11T14:50:12.032Z,99682.00
2022-09-11T14:52:42.379Z,99674.00
2022-09-11T14:55:15.486Z,99673.00
2022-09-11T14:57:43.407Z,99672.00
2022-09-11T15:00:15.153Z,99684.00
2022-09-11T15:02:43.043Z,99671.00
2022-09-11T15:05:19.097Z,99663.00
2022-09-11T15:07:47.068Z,99659.00
2022-09-11T15:10:16.653Z,99664.00
2022-09-11T15:12:44.820Z,99673.00
2022-09-11T15:15:17.640Z,99675.00
2022-09-11T15:17:46.141Z,99680.00
2022-09-11T15:20:15.356Z,99675.00
2022-09-11T15:22:44.313Z,99669.00
2022-09-11T15:25:12.260Z,99671.00
2022-09-11T15:27:40.417Z,99680.00
2022-09-11T15:30:09.525Z,99673.00
2022-09-11T15:32:38.737Z,99672.00
2022-09-11T15:35:07.910Z,99673.00
2022-09-11T15:37:37.110Z,99675.00
2022-09-11T15:40:06.288Z,99679.00
2022-09-11T15:42:39.554Z,99675.00
2022-09-11T15:45:09.996Z,99679.00
2022-09-11T15:47:37.910Z,99676.00
2022-09-11T15:50:07.798Z,99679.00
2022-09-11T15:52:38.137Z,99678.00
2022-09-11T15:55:07.744Z,99680.00
2022-09-11T15:57:36.763Z,99677.00
2022-09-11T16:00:05.966Z,99674.00
2022-09-11T16:02:39.864Z,99675.00
2022-09-11T16:05:08.595Z,99673.00
2022-09-11T16:07:37.795Z,99666.00
2022-09-11T16:10:06.815Z,99665.00
2022-09-11T16:12:34.793Z,99653.00
2022-09-11T16:15:02.842Z,99657.00
2022-09-11T16:17:32.387Z,99659.00
2022-09-11T16:20:00.532Z,99658.00
2022-09-11T16:22:31.327Z,99656.00
2022-09-11T16:25:00.622Z,99654.00
2022-09-11T16:27:28.833Z,99661.00
2022-09-11T16:30:26.227Z,99658.00
2022-09-11T16:32:45.287Z,99658.00
2022-09-11T16:35:14.138Z,99665.00
2022-09-11T16:37:42.191Z,99669.00
2022-09-11T16:40:11.867Z,99671.00
2022-09-11T16:42:39.974Z,99667.00
2022-09-11T16:45:08.945Z,99661.00
2022-09-11T16:47:36.953Z,99666.00
2022-09-11T16:50:07.833Z,99669.00
2022-09-11T16:52:36.864Z,99666.00
2022-09-11T16:55:07.312Z,99665.00
2022-09-11T16:57:37.196Z,99677.00
2022-09-11T17:00:07.625Z,99665.00
2022-09-11T17:02:37.383Z,99667.00
2022-09-11T17:05:06.022Z,99672.00
2022-09-11T17:07:33.912Z,99677.00
2022-09-11T17:10:01.901Z,99675.00
2022-09-11T17:12:29.810Z,99682.00
2022-09-11T17:14:58.974Z,99680.00
2022-09-11T17:17:26.879Z,99682.00
2022-09-11T17:19:54.806Z,99676.00
2022-09-11T17:22:22.669Z,99679.00
2022-09-11T17:24:50.498Z,99684.00
2022-09-11T17:27:18.405Z,99684.00
2022-09-11T17:29:47.220Z,99688.00
2022-09-11T17:32:29.078Z,99680.00
2022-09-11T17:34:58.335Z,99683.00
2022-09-11T17:37:27.386Z,99691.00
2022-09-11T17:39:55.653Z,99693.00
2022-09-11T17:42:23.783Z,99688.00
2022-09-11T17:44:51.843Z,99683.00
2022-09-11T17:47:21.131Z,99694.00
2022-09-11T17:49:49.934Z,99685.00
2022-09-11T17:52:19.034Z,99686.00
2022-09-11T17:54:47.364Z,99686.00
2022-09-11T17:57:15.943Z,99686.00
2022-09-11T17:59:44.539Z,99689.00
2022-09-11T18:02:15.383Z,99689.00
2022-09-11T18:04:44.898Z,99687.00
2022-09-11T18:07:12.791Z,99693.00
2022-09-11T18:09:40.864Z,99694.00
2022-09-11T18:12:09.927Z,99690.00
2022-09-11T18:14:39.581Z,99685.00
2022-09-11T18:17:07.800Z,99696.00
2022-09-11T18:19:36.023Z,99684.00
2022-09-11T18:22:06.073Z,99704.00
2022-09-11T18:24:34.539Z,99692.00
2022-09-11T18:27:02.650Z,99695.00
2022-09-11T18:29:30.752Z,99694.00
2022-09-11T18:32:00.325Z,99699.00
2022-09-11T18:34:31.148Z,99709.00
2022-09-11T18:37:00.111Z,99717.00
2022-09-11T18:39:33.873Z,99717.00
2022-09-11T18:42:01.999Z,99716.00
2022-09-11T18:44:30.118Z,99718.00
2022-09-11T18:46:58.743Z,99728.00
2022-09-11T18:49:26.993Z,99727.00
2022-09-11T18:51:54.894Z,99729.00
2022-09-11T18:54:23.166Z,99736.00
2022-09-11T18:56:52.675Z,99739.00
2022-09-11T18:59:21.325Z,99739.00
2022-09-11T19:01:49.333Z,99746.00
2022-09-11T19:04:17.420Z,99742.00
2022-09-11T19:06:46.301Z,99735.00
2022-09-11T19:09:14.774Z,99741.00
2022-09-11T19:11:43.328Z,99737.00
2022-09-11T19:14:13.593Z,99741.00
2022-09-11T19:16:42.335Z,99743.00
2022-09-11T19:19:10.691Z,99741.00
2022-09-11T19:21:39.803Z,99736.00
2022-09-11T19:24:08.493Z,99743.00
2022-09-11T19:26:38.821Z,99743.00
2022-09-11T19:29:08.467Z,99740.00
2022-09-11T19:31:39.535Z,99744.00
2022-09-11T19:34:09.569Z,99738.00
2022-09-11T19:36:37.548Z,99742.00
2022-09-11T19:39:06.723Z,99742.00
2022-09-11T19:41:38.562Z,99739.00
2022-09-11T19:44:09.008Z,99735.00
2022-09-11T19:46:38.414Z,99731.00
2022-09-11T19:49:07.869Z,99736.00
2022-09-11T19:51:38.559Z,99744.00
2022-09-11T19:54:07.877Z,99746.00
2022-09-11T19:56:38.451Z,99739.00
2022-09-11T19:59:07.504Z,99748.00
2022-09-11T20:01:35.777Z,99736.00
2022-09-11T20:04:05.720Z,99744.00
2022-09-11T20:06:35.640Z,99746.00
2022-09-11T20:09:30.796Z,99753.00
2022-09-11T20:11:53.641Z,99754.00
2022-09-11T20:14:21.665Z,99743.00
2022-09-11T20:16:49.521Z,99753.00
2022-09-11T20:19:20.059Z,99746.00
2022-09-11T20:21:48.034Z,99755.00
2022-09-11T20:24:15.950Z,99744.00
2022-09-11T20:26:44.003Z,99746.00
2022-09-11T20:29:15.781Z,99742.00
2022-09-11T20:31:48.688Z,99738.00
2022-09-11T20:34:20.046Z,99738.00
2022-09-11T20:36:48.857Z,99742.00
2022-09-11T20:39:17.406Z,99732.00
2022-09-11T20:41:45.679Z,99735.00
2022-09-11T20:44:13.709Z,99730.00
2022-09-11T20:46:43.506Z,99727.00
2022-09-11T20:49:12.079Z,99734.00
2022-09-11T20:51:41.342Z,99740.00
2022-09-11T20:54:09.774Z,99734.00
2022-09-11T20:56:37.808Z,99741.00
2022-09-11T20:59:05.758Z,99741.00
2022-09-11T21:01:34.587Z,99743.00
2022-09-11T21:04:05.469Z,99746.00
2022-09-11T21:06:35.841Z,99749.00
2022-09-11T21:09:09.127Z,99739.00
2022-09-11T21:11:38.215Z,99742.00
2022-09-11T21:14:06.883Z,99742.00
2022-09-11T21:16:35.489Z,99748.00
2022-09-11T21:19:05.150Z,99748.00
2022-09-11T21:21:35.389Z,99745.00
2022-09-11T21:24:07.930Z,99744.00
2022-09-11T21:26:37.430Z,99744.00
2022-09-11T21:29:08.821Z,99752.00
2022-09-11T21:31:37.109Z,99744.00
2022-09-11T21:34:05.102Z,99740.00
2022-09-11T21:36:33.463Z,99739.00
2022-09-11T21:39:01.314Z,99741.00
2022-09-11T21:41:30.568Z,99737.00
2022-09-11T21:43:58.639Z,99734.00
2022-09-11T21:46:26.678Z,99737.00
2022-09-11T21:48:54.593Z,99734.00
2022-09-11T21:51:23.212Z,99728.00
2022-09-11T21:53:58.132Z,99731.00
2022-09-11T21:56:30.215Z,99731.00
2022-09-11T21:59:00.559Z,99733.00
2022-09-11T22:01:29.766Z,99732.00
2022-09-11T22:03:59.956Z,99738.00
2022-09-11T22:06:28.315Z,99739.00
2022-09-11T22:08:57.083Z,99729.00
2022-09-11T22:11:26.350Z,99732.00
2022-09-11T22:13:54.465Z,99736.00
2022-09-11T22:16:23.937Z,99737.00
2022-09-11T22:18:54.674Z,99736.00
2022-09-11T22:21:22.634Z,99731.00
2022-09-11T22:23:50.740Z,99733.00
2022-09-11T22:26:21.039Z,99741.00
2022-09-11T22:28:49.379Z,99742.00
2022-09-11T22:31:21.118Z,99729.00
2022-09-11T22:33:50.647Z,99724.00
2022-09-11T22:36:23.384Z,99731.00
2022-09-11T22:38:52.010Z,99732.00
2022-09-11T22:41:20.824Z,99724.00
2022-09-11T22:43:50.021Z,99723.00
2022-09-11T22:46:20.705Z,99728.00
2022-09-11T22:48:50.272Z,99733.00
2022-09-11T22:51:18.349Z,99723.00
2022-09-11T22:53:46.845Z,99731.00
2022-09-11T22:56:15.535Z,99734.00
2022-09-11T22:58:43.791Z,99740.00
2022-09-11T23:01:19.678Z,99734.00
2022-09-11T23:03:51.615Z,99727.00
2022-09-11T23:06:37.929Z,99731.00
2022-09-11T23:09:06.478Z,99730.00
2022-09-11T23:11:34.397Z,99730.00
2022-09-11T23:14:02.277Z,99726.00
2022-09-11T23:16:30.511Z,99724.00
2022-09-11T23:19:04.785Z,99723.00
2022-09-11T23:21:35.520Z,99730.00
2022-09-11T23:24:06.169Z,99732.00
2022-09-11T23:26:34.461Z,99728.00
2022-09-11T23:29:02.397Z,99727.00
2022-09-11T23:31:32.979Z,99726.00
2022-09-11T23:34:06.439Z,99722.00
2022-09-11T23:36:35.474Z,99727.00
2022-09-11T23:39:04.461Z,99726.00
2022-09-11T23:41:35.025Z,99726.00
2022-09-11T23:44:03.525Z,99723.00
2022-09-11T23:46:31.572Z,99729.00
2022-09-11T23:48:59.619Z,99725.00
2022-09-11T23:51:28.908Z,99726.00
2022-09-11T23:53:56.835Z,99730.00
2022-09-11T23:56:24.783Z,99721.00
2022-09-11T23:58:52.690Z,99719.00
